createdAt,value
2022-11-03T00:00:39.658Z,6.97
2022-11-03T00:05:56.206Z,6.67
2022-11-03T00:10:48.370Z,8.57
2022-11-03T00:15:36.895Z,7.27
2022-11-03T00:20:23.075Z,5.03
2022-11-03T00:25:13.765Z,5.37
2022-11-03T00:30:07.010Z,5.13
2022-11-03T00:34:50.330Z,3.53
2022-11-03T00:39:42.631Z,9.60
2022-11-03T00:44:27.503Z,5.87
2022-11-03T00:49:13.255Z,5.03
2022-11-03T00:54:07.387Z,5.87
2022-11-03T00:58:51.964Z,4.47
2022-11-03T01:03:42.117Z,5.23
2022-11-03T01:08:44.181Z,4.37
2022-11-03T01:13:33.375Z,7.33
2022-11-03T01:18:19.175Z,4.57
2022-11-03T01:23:21.136Z,4.43
2022-11-03T01:28:11.170Z,2.03
2022-11-03T01:33:00.488Z,6.20
2022-11-03T01:37:46.945Z,6.73
2022-11-03T01:42:35.102Z,4.80
2022-11-03T01:47:27.244Z,4.27
2022-11-03T01:52:16.109Z,7.30
2022-11-03T01:57:03.118Z,2.77
2022-11-03T02:01:48.180Z,4.97
2022-11-03T02:06:32.583Z,3.00
2022-11-03T02:11:33.859Z,4.27
2022-11-03T02:16:25.836Z,4.70
2022-11-03T02:21:23.005Z,3.70
2022-11-03T02:26:20.433Z,4.97
2022-11-03T02:31:16.103Z,3.93
2022-11-03T02:36:04.680Z,4.10
2022-11-03T02:41:06.018Z,4.70
2022-11-03T02:45:52.458Z,6.63
2022-11-03T02:50:53.006Z,5.23
2022-11-03T02:55:41.017Z,4.80
2022-11-03T03:00:47.975Z,6.23
2022-11-03T03:05:38.512Z,6.00
2022-11-03T03:10:25.254Z,5.70
2022-11-03T03:15:10.521Z,5.30
2022-11-03T03:20:01.734Z,6.30
2022-11-03T03:24:52.307Z,3.00
2022-11-03T03:29:51.559Z,5.83
2022-11-03T03:34:43.024Z,4.80
2022-11-03T03:39:31.037Z,4.60
2022-11-03T03:44:17.213Z,5.23
2022-11-03T03:49:04.264Z,6.83
2022-11-03T03:53:52.010Z,2.87
2022-11-03T03:58:37.794Z,5.03
2022-11-03T04:03:27.011Z,4.93
2022-11-03T04:08:17.641Z,9.80
2022-11-03T04:13:18.752Z,8.27
2022-11-03T04:18:21.367Z,7.67
2022-11-03T04:23:08.924Z,16.80
2022-11-03T04:28:01.310Z,15.23
2022-11-03T04:32:48.731Z,11.87
2022-11-03T04:37:33.773Z,8.70
2022-11-03T04:42:22.792Z,6.40
2022-11-03T04:47:10.983Z,5.63
2022-11-03T04:52:00.093Z,7.00
2022-11-03T04:56:43.389Z,7.07
2022-11-03T05:01:32.430Z,9.77
2022-11-03T05:06:21.140Z,4.57
2022-11-03T05:11:16.250Z,4.93
2022-11-03T05:16:04.185Z,5.53
2022-11-03T05:20:52.702Z,4.40
2022-11-03T05:25:48.875Z,8.67
2022-11-03T05:30:37.936Z,7.53
2022-11-03T05:35:30.257Z,7.57
2022-11-03T05:40:31.403Z,6.30
2022-11-03T05:45:30.284Z,7.10
2022-11-03T05:50:19.775Z,7.43
2022-11-03T05:55:14.729Z,9.40
2022-11-03T06:00:00.264Z,9.07
2022-11-03T06:04:45.605Z,11.77
2022-11-03T06:09:35.163Z,8.03
2022-11-03T06:14:24.499Z,12.23
2022-11-03T06:19:23.950Z,13.77
2022-11-03T06:24:16.942Z,6.73
2022-11-03T06:29:02.148Z,11.23
2022-11-03T06:33:47.717Z,8.77
2022-11-03T06:38:40.413Z,8.80
2022-11-03T06:43:28.693Z,9.50
2022-11-03T06:48:28.756Z,8.37
2022-11-03T06:53:15.253Z,10.57
2022-11-03T06:58:19.664Z,6.33
2022-11-03T07:03:08.902Z,9.53
2022-11-03T07:07:58.244Z,9.70
2022-11-03T07:12:45.330Z,10.53
2022-11-03T07:17:35.105Z,8.13
2022-11-03T07:22:24.628Z,10.10
2022-11-03T07:27:22.857Z,8.30
2022-11-03T07:32:12.709Z,10.00
2022-11-03T07:37:01.679Z,7.13
2022-11-03T07:41:48.877Z,7.90
2022-11-03T07:46:38.010Z,10.57
2022-11-03T07:51:28.673Z,7.20
2022-11-03T07:56:20.937Z,7.77
2022-11-03T08:01:27.901Z,9.80
2022-11-03T08:06:11.830Z,6.53
2022-11-03T08:15:56.994Z,9.83
2022-11-03T08:20:46.661Z,9.23
2022-11-03T08:25:32.254Z,8.43
2022-11-03T08:30:19.498Z,8.73
2022-11-03T08:35:11.832Z,8.53
2022-11-03T08:39:56.803Z,9.83
2022-11-03T08:44:46.114Z,7.00
2022-11-03T08:49:34.344Z,7.33
2022-11-03T08:54:21.335Z,11.10
2022-11-03T08:59:13.501Z,9.23
2022-11-03T09:03:56.784Z,7.53
2022-11-03T09:13:49.607Z,9.70
2022-11-03T09:18:42.170Z,8.77
2022-11-03T09:23:25.608Z,6.10
2022-11-03T09:28:13.832Z,4.87
2022-11-03T09:33:02.704Z,8.77
2022-11-03T09:37:46.005Z,5.23
2022-11-03T09:42:31.274Z,6.17
2022-11-03T09:47:23.263Z,6.33
2022-11-03T09:52:17.348Z,8.77
2022-11-03T09:57:19.762Z,3.63
2022-11-03T10:02:04.880Z,6.47
2022-11-03T10:06:56.032Z,4.60
2022-11-03T10:11:43.721Z,5.33
2022-11-03T10:16:29.396Z,3.90
2022-11-03T10:21:17.384Z,8.37
2022-11-03T10:26:10.910Z,4.53
2022-11-03T10:31:13.611Z,5.73
2022-11-03T10:35:58.831Z,3.77
2022-11-03T10:40:48.128Z,6.00
2022-11-03T10:45:34.759Z,9.13
2022-11-03T10:50:26.033Z,3.00
2022-11-03T10:55:10.150Z,3.20
2022-11-03T10:59:59.627Z,2.70
2022-11-03T11:04:43.454Z,2.80
2022-11-03T11:09:35.909Z,3.20
2022-11-03T11:14:23.728Z,3.50
2022-11-03T11:19:10.128Z,2.53
2022-11-03T11:23:59.464Z,2.50
2022-11-03T11:29:07.641Z,4.73
2022-11-03T11:34:18.691Z,5.03
2022-11-03T11:39:07.451Z,3.50
2022-11-03T11:43:55.399Z,2.00
2022-11-03T11:48:45.975Z,2.10
2022-11-03T11:53:34.145Z,4.33
2022-11-03T11:58:25.243Z,2.53
2022-11-03T12:03:16.447Z,2.37
2022-11-03T12:08:18.752Z,6.17
2022-11-03T12:13:02.266Z,3.13
2022-11-03T12:17:49.753Z,4.13
2022-11-03T12:22:42.912Z,5.00
2022-11-03T12:27:43.393Z,5.43
2022-11-03T12:32:33.358Z,5.37
2022-11-03T12:37:19.534Z,6.17
2022-11-03T12:42:06.344Z,8.80
2022-11-03T12:46:58.790Z,7.10
2022-11-03T12:51:42.190Z,3.93
2022-11-03T12:56:31.213Z,3.13
2022-11-03T13:01:20.771Z,3.33
2022-11-03T13:06:10.159Z,3.80
2022-11-03T13:10:53.864Z,3.63
2022-11-03T13:15:48.199Z,4.80
2022-11-03T13:20:31.690Z,3.97
2022-11-03T13:25:19.045Z,5.77
2022-11-03T13:30:09.660Z,3.57
2022-11-03T13:34:54.681Z,5.53
2022-11-03T13:39:40.019Z,6.50
2022-11-03T13:44:32.637Z,3.57
2022-11-03T13:59:26.604Z,7.93
2022-11-03T14:09:21.338Z,3.97
2022-11-03T14:14:04.802Z,4.50
2022-11-03T14:18:57.791Z,5.67
2022-11-03T14:23:41.199Z,9.33
2022-11-03T14:28:32.212Z,4.20
2022-11-03T14:33:18.723Z,8.60
2022-11-03T14:38:04.728Z,9.60
2022-11-03T14:42:51.443Z,6.67
2022-11-03T14:47:40.668Z,8.57
2022-11-03T14:52:28.568Z,5.77
2022-11-03T14:57:17.560Z,9.20
2022-11-03T15:02:07.268Z,6.30
2022-11-03T15:06:54.659Z,7.47
2022-11-03T15:11:44.343Z,7.83
2022-11-03T15:16:27.976Z,6.70
2022-11-03T15:21:17.265Z,6.00
2022-11-03T15:26:08.069Z,6.50
2022-11-03T15:30:54.812Z,8.17
2022-11-03T15:35:40.008Z,9.47
2022-11-03T15:40:32.861Z,7.97
2022-11-03T15:45:19.263Z,8.73
2022-11-03T15:50:06.554Z,8.77
2022-11-03T15:54:51.828Z,7.40
2022-11-03T15:59:41.523Z,8.80
2022-11-03T16:04:36.055Z,10.53
2022-11-03T16:10:11.942Z,9.10
2022-11-03T16:16:35.383Z,9.80
2022-11-03T16:21:07.557Z,9.07
2022-11-03T16:25:50.897Z,10.03
2022-11-03T16:30:39.465Z,9.27
2022-11-03T16:35:23.057Z,11.53
2022-11-03T16:40:19.368Z,12.20
2022-11-03T16:45:03.270Z,8.70
2022-11-03T16:49:52.929Z,8.63
2022-11-03T16:54:39.804Z,9.80
2022-11-03T16:59:27.610Z,12.77
2022-11-03T17:04:14.145Z,8.33
2022-11-03T17:09:06.673Z,9.27
2022-11-03T17:13:50.088Z,11.63
2022-11-03T17:18:55.933Z,9.80
2022-11-03T17:23:43.014Z,9.67
2022-11-03T17:28:29.387Z,13.80
2022-11-03T17:33:22.122Z,11.93
2022-11-03T17:38:21.229Z,11.00
2022-11-03T17:43:27.034Z,12.07
2022-11-03T17:48:16.388Z,11.57
2022-11-03T17:53:02.669Z,12.23
2022-11-03T17:57:50.727Z,10.10
2022-11-03T18:02:42.073Z,13.77
2022-11-03T18:07:27.896Z,10.30
2022-11-03T18:12:32.757Z,10.67
2022-11-03T18:17:20.627Z,10.57
2022-11-03T18:22:12.545Z,8.63
2022-11-03T18:27:41.864Z,9.07
2022-11-03T18:32:50.422Z,11.10
2022-11-03T18:37:34.621Z,8.83
2022-11-03T18:42:21.774Z,10.83
2022-11-03T18:47:08.077Z,11.40
2022-11-03T18:52:03.805Z,7.90
2022-11-03T18:56:48.008Z,11.40
2022-11-03T19:01:35.384Z,15.83
2022-11-03T19:06:28.063Z,15.10
2022-11-03T19:11:13.913Z,20.60
2022-11-03T19:15:57.936Z,19.00
2022-11-03T19:20:51.111Z,15.53
2022-11-03T19:25:34.631Z,13.97
2022-11-03T19:30:22.719Z,15.60
2022-11-03T19:35:16.204Z,11.30
2022-11-03T19:39:59.698Z,13.03
2022-11-03T19:44:46.140Z,18.67
2022-11-03T19:49:37.104Z,12.17
2022-11-03T19:54:25.107Z,13.97
2022-11-03T19:59:12.652Z,16.03
2022-11-03T20:03:57.491Z,15.53
2022-11-03T20:08:47.357Z,14.70
2022-11-03T20:13:40.467Z,16.03
2022-11-03T20:18:24.158Z,17.97
2022-11-03T20:23:32.375Z,17.57
2022-11-03T20:28:26.877Z,19.93
2022-11-03T20:33:18.809Z,19.87
2022-11-03T20:38:20.777Z,19.20
2022-11-03T20:43:26.970Z,18.97
2022-11-03T20:48:13.813Z,17.00
2022-11-03T20:53:19.222Z,19.80
2022-11-03T20:58:10.653Z,20.23
2022-11-03T21:02:56.623Z,20.57
2022-11-03T21:07:44.116Z,21.27
2022-11-03T21:12:30.361Z,19.07
2022-11-03T21:17:36.952Z,19.77
2022-11-03T21:22:50.448Z,19.30
2022-11-03T21:27:27.673Z,21.27
2022-11-03T21:32:16.117Z,20.53
2022-11-03T21:36:59.360Z,20.47
2022-11-03T21:42:09.109Z,19.87
2022-11-03T21:46:52.471Z,20.63
2022-11-03T21:51:43.474Z,20.00
2022-11-03T21:56:28.862Z,18.50
2022-11-03T22:01:22.179Z,19.23
2022-11-03T22:06:07.985Z,18.17
2022-11-03T22:10:53.329Z,19.40
2022-11-03T22:15:59.136Z,17.60
2022-11-03T22:21:04.126Z,18.40
2022-11-03T22:26:07.932Z,16.63
2022-11-03T22:31:10.409Z,17.37
2022-11-03T22:36:21.294Z,17.17
2022-11-03T22:41:36.911Z,16.23
2022-11-03T22:46:23.103Z,15.57
2022-11-03T22:51:14.701Z,18.03
2022-11-03T22:56:00.774Z,16.47
2022-11-03T23:00:47.649Z,15.13
2022-11-03T23:05:33.780Z,13.73
2022-11-03T23:10:28.248Z,12.13
2022-11-03T23:15:29.346Z,13.40
2022-11-03T23:20:30.041Z,11.90
2022-11-03T23:25:19.160Z,12.40
2022-11-03T23:30:07.062Z,15.03
2022-11-03T23:34:53.450Z,12.77
2022-11-03T23:39:40.781Z,14.33
2022-11-03T23:44:58.433Z,15.07
2022-11-03T23:49:48.997Z,12.47
2022-11-03T23:54:42.938Z,13.77
2022-11-03T23:59:29.409Z,11.40
